Terminal Aerodrome Forecast
Issued by NWS

Home | Current Version | Previous Version | Graphics & Text | Print | Product List | Glossary On
Versions: 1 2 3 4 5 6 7 8 9 10 11 12 13 14 15 16 17 18 19 20 21 22 23 24 25 26 27 28 29 30 31
000
FTUS43 KLOT 240900 AAA
TAFORD
TAF AMD
KORD 240900Z 2409/2512 20008KT P6SM BKN250 WS020/20040KT
     FM241100 20008KT P6SM BKN250
     FM241500 20012KT P6SM SCT050 BKN250
     FM250100 21007KT P6SM BKN250=

USA.gov is the U.S. government's official web portal to all federal, state and local government web resources and services.